sensor_id;sensor_type;location;lat;lon;timestamp;pressure;altitude;pressure_sealevel;temperature;humidity
83843;BME280;73869;52.336;21.182;2023-11-19T00:00:12;101325.94;;;0.82;80.91
83843;BME280;73869;52.336;21.182;2023-11-19T00:02:41;101330.44;;;0.81;80.92
83843;BME280;73869;52.336;21.182;2023-11-19T00:05:08;101331.28;;;0.82;81.29
83843;BME280;73869;52.336;21.182;2023-11-19T00:07:37;101332.13;;;0.82;81.60
83843;BME280;73869;52.336;21.182;2023-11-19T00:10:08;101331.28;;;0.82;81.21
83843;BME280;73869;52.336;21.182;2023-11-19T00:12:35;101328.63;;;0.82;81.69
83843;BME280;73869;52.336;21.182;2023-11-19T00:15:02;101322.41;;;0.81;81.24
83843;BME280;73869;52.336;21.182;2023-11-19T00:17:30;101322.13;;;0.84;80.87
83843;BME280;73869;52.336;21.182;2023-11-19T00:19:58;101330.16;;;0.84;81.26
83843;BME280;73869;52.336;21.182;2023-11-19T00:22:25;101319.47;;;0.84;81.14
83843;BME280;73869;52.336;21.182;2023-11-19T00:24:52;101315.78;;;0.85;81.05
83843;BME280;73869;52.336;21.182;2023-11-19T00:27:18;101312.88;;;0.88;80.54
83843;BME280;73869;52.336;21.182;2023-11-19T00:29:46;101306.53;;;0.89;80.86
83843;BME280;73869;52.336;21.182;2023-11-19T00:32:13;101301.31;;;0.88;80.99
83843;BME280;73869;52.336;21.182;2023-11-19T00:34:40;101309.34;;;0.88;81.15
83843;BME280;73869;52.336;21.182;2023-11-19T00:37:11;101304.28;;;0.85;82.07
83843;BME280;73869;52.336;21.182;2023-11-19T00:39:37;101310.31;;;0.87;80.89
83843;BME280;73869;52.336;21.182;2023-11-19T00:42:04;101299.38;;;0.90;80.77
83843;BME280;73869;52.336;21.182;2023-11-19T00:44:31;101301.91;;;0.91;81.50
83843;BME280;73869;52.336;21.182;2023-11-19T00:46:58;101286.69;;;0.92;80.81
83843;BME280;73869;52.336;21.182;2023-11-19T00:49:25;101287.28;;;0.95;80.91
83843;BME280;73869;52.336;21.182;2023-11-19T00:51:52;101283.78;;;0.95;81.35
83843;BME280;73869;52.336;21.182;2023-11-19T00:54:20;101274.19;;;0.92;81.82
83843;BME280;73869;52.336;21.182;2023-11-19T00:56:51;101272.34;;;0.93;81.53
83843;BME280;73869;52.336;21.182;2023-11-19T00:59:18;101272.34;;;0.93;81.38
83843;BME280;73869;52.336;21.182;2023-11-19T01:01:44;101272.22;;;0.94;81.15
83843;BME280;73869;52.336;21.182;2023-11-19T01:04:13;101272.78;;;0.98;81.19
83843;BME280;73869;52.336;21.182;2023-11-19T01:06:40;101265.59;;;0.98;81.24
83843;BME280;73869;52.336;21.182;2023-11-19T01:09:08;101264.78;;;0.98;81.90
83843;BME280;73869;52.336;21.182;2023-11-19T01:11:36;101257.56;;;0.98;81.32
83843;BME280;73869;52.336;21.182;2023-11-19T01:14:03;101254.22;;;0.96;81.11
83843;BME280;73869;52.336;21.182;2023-11-19T01:16:30;101240.84;;;0.96;81.76
83843;BME280;73869;52.336;21.182;2023-11-19T01:18:57;101247.00;;;0.97;81.83
83843;BME280;73869;52.336;21.182;2023-11-19T01:21:23;101237.19;;;0.97;81.52
83843;BME280;73869;52.336;21.182;2023-11-19T01:23:51;101230.00;;;0.98;81.70
83843;BME280;73869;52.336;21.182;2023-11-19T01:26:18;101231.69;;;0.99;81.55
83843;BME280;73869;52.336;21.182;2023-11-19T01:28:46;101228.88;;;1.00;81.36
83843;BME280;73869;52.336;21.182;2023-11-19T01:31:15;101227.34;;;0.98;81.88
83843;BME280;73869;52.336;21.182;2023-11-19T01:33:42;101226.47;;;0.97;82.32
83843;BME280;73869;52.336;21.182;2023-11-19T01:36:12;101229.16;;;0.97;82.20
83843;BME280;73869;52.336;21.182;2023-11-19T01:38:39;101225.63;;;0.97;82.12
83843;BME280;73869;52.336;21.182;2023-11-19T01:41:06;101220.28;;;0.97;81.88
83843;BME280;73869;52.336;21.182;2023-11-19T01:43:34;101222.50;;;0.92;82.84
83843;BME280;73869;52.336;21.182;2023-11-19T01:46:04;101222.50;;;0.92;83.12
83843;BME280;73869;52.336;21.182;2023-11-19T01:48:31;101211.81;;;0.92;82.58
83843;BME280;73869;52.336;21.182;2023-11-19T01:50:59;101216.06;;;0.94;82.11
83843;BME280;73869;52.336;21.182;2023-11-19T01:53:27;101213.53;;;0.93;82.19
83843;BME280;73869;52.336;21.182;2023-11-19T01:55:56;101209.00;;;0.93;82.45
83843;BME280;73869;52.336;21.182;2023-11-19T01:58:23;101198.31;;;0.93;82.39
83843;BME280;73869;52.336;21.182;2023-11-19T02:00:51;101196.34;;;0.95;81.63
83843;BME280;73869;52.336;21.182;2023-11-19T02:03:19;101187.91;;;1.00;81.34
83843;BME280;73869;52.336;21.182;2023-11-19T02:05:47;101182.44;;;1.01;81.59
83843;BME280;73869;52.336;21.182;2023-11-19T02:08:16;101181.44;;;1.02;81.55
83843;BME280;73869;52.336;21.182;2023-11-19T02:10:43;101181.59;;;1.01;82.28
83843;BME280;73869;52.336;21.182;2023-11-19T02:13:11;101179.88;;;1.00;82.36
83843;BME280;73869;52.336;21.182;2023-11-19T02:15:40;101171.03;;;0.99;81.99
83843;BME280;73869;52.336;21.182;2023-11-19T02:18:22;101178.19;;;0.99;82.83
83843;BME280;73869;52.336;21.182;2023-11-19T02:20:49;101177.34;;;0.98;82.37
83843;BME280;73869;52.336;21.182;2023-11-19T02:23:17;101174.00;;;0.96;82.75
83843;BME280;73869;52.336;21.182;2023-11-19T02:25:47;101176.66;;;0.96;82.50
83843;BME280;73869;52.336;21.182;2023-11-19T02:28:19;101165.97;;;0.96;82.86
83843;BME280;73869;52.336;21.182;2023-11-19T02:30:46;101167.38;;;1.00;81.86
83843;BME280;73869;52.336;21.182;2023-11-19T02:33:13;101152.03;;;1.02;81.80
83843;BME280;73869;52.336;21.182;2023-11-19T02:35:40;101160.91;;;1.03;81.17
83843;BME280;73869;52.336;21.182;2023-11-19T02:38:07;101157.38;;;1.02;82.19
83843;BME280;73869;52.336;21.182;2023-11-19T02:40:34;101146.97;;;0.99;82.02
83843;BME280;73869;52.336;21.182;2023-11-19T02:43:01;101150.59;;;0.98;82.60
83843;BME280;73869;52.336;21.182;2023-11-19T02:45:31;101151.47;;;0.99;82.49
83843;BME280;73869;52.336;21.182;2023-11-19T02:47:58;101146.25;;;0.97;82.24
83843;BME280;73869;52.336;21.182;2023-11-19T02:50:28;101140.91;;;0.97;82.33
83843;BME280;73869;52.336;21.182;2023-11-19T02:52:56;101145.97;;;1.00;81.97
83843;BME280;73869;52.336;21.182;2023-11-19T02:55:23;101125.28;;;1.02;81.66
83843;BME280;73869;52.336;21.182;2023-11-19T02:57:51;101118.25;;;1.01;81.88
83843;BME280;73869;52.336;21.182;2023-11-19T03:00:19;101101.22;;;1.02;81.68
83843;BME280;73869;52.336;21.182;2023-11-19T03:02:50;101101.94;;;1.04;81.83
83843;BME280;73869;52.336;21.182;2023-11-19T03:05:25;101105.84;;;1.10;81.21
83843;BME280;73869;52.336;21.182;2023-11-19T03:07:55;101098.81;;;1.09;81.22
83843;BME280;73869;52.336;21.182;2023-11-19T03:10:22;101099.09;;;1.06;82.15
83843;BME280;73869;52.336;21.182;2023-11-19T03:12:49;101094.06;;;1.03;81.81
83843;BME280;73869;52.336;21.182;2023-11-19T03:15:16;101093.91;;;1.04;81.83
83843;BME280;73869;52.336;21.182;2023-11-19T03:17:42;101095.72;;;1.04;82.17
83843;BME280;73869;52.336;21.182;2023-11-19T03:20:11;101095.00;;;1.02;82.39
83843;BME280;73869;52.336;21.182;2023-11-19T03:22:41;101094.06;;;1.03;81.71
83843;BME280;73869;52.336;21.182;2023-11-19T03:25:08;101083.88;;;1.06;81.92
83843;BME280;73869;52.336;21.182;2023-11-19T03:27:35;101076.00;;;1.05;81.94
83843;BME280;73869;52.336;21.182;2023-11-19T03:30:02;101072.66;;;1.03;82.54
83843;BME280;73869;52.336;21.182;2023-11-19T03:32:31;101075.31;;;1.03;81.69
83843;BME280;73869;52.336;21.182;2023-11-19T03:34:58;101062.50;;;1.06;81.24
83843;BME280;73869;52.336;21.182;2023-11-19T03:37:27;101054.22;;;1.09;81.30
83843;BME280;73869;52.336;21.182;2023-11-19T03:39:54;101040.13;;;1.07;81.70
83843;BME280;73869;52.336;21.182;2023-11-19T03:42:25;101046.31;;;1.08;81.60
83843;BME280;73869;52.336;21.182;2023-11-19T03:44:51;101047.59;;;1.04;81.54
83843;BME280;73869;52.336;21.182;2023-11-19T03:47:18;101052.78;;;1.05;82.63
83843;BME280;73869;52.336;21.182;2023-11-19T03:49:47;101052.22;;;1.02;82.62
83843;BME280;73869;52.336;21.182;2023-11-19T03:52:15;101046.06;;;1.01;82.46
83843;BME280;73869;52.336;21.182;2023-11-19T03:54:44;101048.84;;;1.00;82.38
83843;BME280;73869;52.336;21.182;2023-11-19T03:57:12;101050.41;;;1.02;82.04
83843;BME280;73869;52.336;21.182;2023-11-19T03:59:39;101054.06;;;1.01;82.22
83843;BME280;73869;52.336;21.182;2023-11-19T04:02:06;101042.38;;;1.02;81.72
83843;BME280;73869;52.336;21.182;2023-11-19T04:04:32;101044.06;;;1.03;81.69
83843;BME280;73869;52.336;21.182;2023-11-19T04:07:00;101022.66;;;1.03;82.03
83843;BME280;73869;52.336;21.182;2023-11-19T04:09:28;101020.97;;;1.02;82.35
83843;BME280;73869;52.336;21.182;2023-11-19T04:11:56;101019.31;;;1.01;82.66
83843;BME280;73869;52.336;21.182;2023-11-19T04:14:23;101016.91;;;0.98;82.88
83843;BME280;73869;52.336;21.182;2023-11-19T04:16:51;101009.59;;;1.00;82.30
83843;BME280;73869;52.336;21.182;2023-11-19T04:19:18;101002.28;;;1.02;81.97
83843;BME280;73869;52.336;21.182;2023-11-19T04:21:45;101009.28;;;1.03;81.74
83843;BME280;73869;52.336;21.182;2023-11-19T04:24:12;100995.09;;;1.03;82.12
83843;BME280;73869;52.336;21.182;2023-11-19T04:26:40;100994.38;;;1.01;83.22
83843;BME280;73869;52.336;21.182;2023-11-19T04:29:13;100990.00;;;1.00;83.07
83843;BME280;73869;52.336;21.182;2023-11-19T04:31:43;100986.38;;;1.01;82.69
83843;BME280;73869;52.336;21.182;2023-11-19T04:34:10;100980.31;;;0.99;82.47
83843;BME280;73869;52.336;21.182;2023-11-19T04:36:37;100974.81;;;1.00;82.66
83843;BME280;73869;52.336;21.182;2023-11-19T04:39:04;100975.66;;;1.01;82.56
83843;BME280;73869;52.336;21.182;2023-11-19T04:41:35;100964.81;;;1.02;82.21
83843;BME280;73869;52.336;21.182;2023-11-19T04:44:02;100965.25;;;1.07;81.61
83843;BME280;73869;52.336;21.182;2023-11-19T04:46:30;100964.53;;;1.05;82.75
83843;BME280;73869;52.336;21.182;2023-11-19T04:48:57;100955.13;;;1.01;83.18
83843;BME280;73869;52.336;21.182;2023-11-19T04:51:24;100944.28;;;1.03;82.47
83843;BME280;73869;52.336;21.182;2023-11-19T04:53:50;100936.13;;;1.04;82.31
83843;BME280;73869;52.336;21.182;2023-11-19T04:56:17;100938.78;;;1.04;82.18
83843;BME280;73869;52.336;21.182;2023-11-19T04:58:45;100936.94;;;1.05;81.98
83843;BME280;73869;52.336;21.182;2023-11-19T05:01:13;100941.47;;;1.04;82.42
83843;BME280;73869;52.336;21.182;2023-11-19T05:03:43;100943.44;;;1.02;82.76
83843;BME280;73869;52.336;21.182;2023-11-19T05:06:10;100940.06;;;1.00;82.49
83843;BME280;73869;52.336;21.182;2023-11-19T05:08:37;100933.84;;;1.00;83.05
83843;BME280;73869;52.336;21.182;2023-11-19T05:11:04;100926.69;;;1.00;83.09
83843;BME280;73869;52.336;21.182;2023-11-19T05:13:32;100924.00;;;1.00;82.79
83843;BME280;73869;52.336;21.182;2023-11-19T05:15:58;100927.38;;;1.02;82.63
83843;BME280;73869;52.336;21.182;2023-11-19T05:18:25;100918.66;;;1.00;82.72
83843;BME280;73869;52.336;21.182;2023-11-19T05:20:53;100910.34;;;1.03;82.58
83843;BME280;73869;52.336;21.182;2023-11-19T05:23:20;100911.03;;;1.05;82.17
83843;BME280;73869;52.336;21.182;2023-11-19T05:25:47;100909.53;;;1.03;82.50
83843;BME280;73869;52.336;21.182;2023-11-19T05:28:14;100907.00;;;1.01;82.52
83843;BME280;73869;52.336;21.182;2023-11-19T05:30:41;100897.81;;;1.04;82.32
83843;BME280;73869;52.336;21.182;2023-11-19T05:33:08;100896.00;;;1.04;82.42
83843;BME280;73869;52.336;21.182;2023-11-19T05:35:35;100896.69;;;1.06;81.87
83843;BME280;73869;52.336;21.182;2023-11-19T05:38:03;100898.38;;;1.07;82.20
83843;BME280;73869;52.336;21.182;2023-11-19T05:40:31;100888.38;;;1.09;82.41
83843;BME280;73869;52.336;21.182;2023-11-19T05:42:58;100897.53;;;1.07;82.36
83843;BME280;73869;52.336;21.182;2023-11-19T05:45:25;100895.69;;;1.07;82.46
83843;BME280;73869;52.336;21.182;2023-11-19T05:47:52;100891.31;;;1.06;82.46
83843;BME280;73869;52.336;21.182;2023-11-19T05:50:19;100899.22;;;1.08;82.19
83843;BME280;73869;52.336;21.182;2023-11-19T05:52:46;100897.53;;;1.07;82.10
83843;BME280;73869;52.336;21.182;2023-11-19T05:55:14;100891.31;;;1.06;82.61
83843;BME280;73869;52.336;21.182;2023-11-19T05:57:41;100887.81;;;1.06;82.63
83843;BME280;73869;52.336;21.182;2023-11-19T06:00:09;100886.81;;;1.07;82.30
83843;BME280;73869;52.336;21.182;2023-11-19T06:02:38;100889.06;;;1.11;82.28
83843;BME280;73869;52.336;21.182;2023-11-19T06:05:06;100893.44;;;1.12;81.98
83843;BME280;73869;52.336;21.182;2023-11-19T06:07:35;100891.88;;;1.10;82.08
83843;BME280;73869;52.336;21.182;2023-11-19T06:10:02;100894.69;;;1.08;82.33
83843;BME280;73869;52.336;21.182;2023-11-19T06:12:33;100886.69;;;1.08;82.11
83843;BME280;73869;52.336;21.182;2023-11-19T06:15:04;100884.00;;;1.08;82.00
83843;BME280;73869;52.336;21.182;2023-11-19T06:17:32;100877.69;;;1.09;81.99
83843;BME280;73869;52.336;21.182;2023-11-19T06:19:59;100874.72;;;1.12;82.52
83843;BME280;73869;52.336;21.182;2023-11-19T06:22:25;100882.88;;;1.11;82.60
83843;BME280;73869;52.336;21.182;2023-11-19T06:24:52;100872.34;;;1.09;82.41
83843;BME280;73869;52.336;21.182;2023-11-19T06:27:19;100874.84;;;1.11;82.34
83843;BME280;73869;52.336;21.182;2023-11-19T06:29:47;100867.97;;;1.08;82.85
83843;BME280;73869;52.336;21.182;2023-11-19T06:32:14;100871.63;;;1.07;82.70
83843;BME280;73869;52.336;21.182;2023-11-19T06:34:41;100875.28;;;1.06;83.10
83843;BME280;73869;52.336;21.182;2023-11-19T06:37:08;100874.16;;;1.09;82.62
83843;BME280;73869;52.336;21.182;2023-11-19T06:39:35;100867.66;;;1.11;82.24
83843;BME280;73869;52.336;21.182;2023-11-19T06:42:03;100869.34;;;1.12;82.73
83843;BME280;73869;52.336;21.182;2023-11-19T06:44:30;100855.13;;;1.12;82.36
83843;BME280;73869;52.336;21.182;2023-11-19T06:46:58;100854.44;;;1.10;82.57
83843;BME280;73869;52.336;21.182;2023-11-19T06:49:25;100850.78;;;1.11;82.43
83843;BME280;73869;52.336;21.182;2023-11-19T06:51:51;100840.91;;;1.11;82.86
83843;BME280;73869;52.336;21.182;2023-11-19T06:54:18;100842.75;;;1.11;82.95
83843;BME280;73869;52.336;21.182;2023-11-19T06:56:45;100832.88;;;1.11;82.72
83843;BME280;73869;52.336;21.182;2023-11-19T06:59:12;100824.88;;;1.11;82.71
83843;BME280;73869;52.336;21.182;2023-11-19T07:01:39;100824.75;;;1.13;83.11
83843;BME280;73869;52.336;21.182;2023-11-19T07:04:11;100827.41;;;1.13;82.59
83843;BME280;73869;52.336;21.182;2023-11-19T07:06:38;100815.41;;;1.17;82.99
83843;BME280;73869;52.336;21.182;2023-11-19T07:09:06;100813.75;;;1.16;83.07
83843;BME280;73869;52.336;21.182;2023-11-19T07:11:36;100810.06;;;1.17;82.88
83843;BME280;73869;52.336;21.182;2023-11-19T07:14:04;100807.38;;;1.17;82.83
83843;BME280;73869;52.336;21.182;2023-11-19T07:16:32;100800.22;;;1.17;83.26
83843;BME280;73869;52.336;21.182;2023-11-19T07:18:59;100796.53;;;1.18;82.61
83843;BME280;73869;52.336;21.182;2023-11-19T07:21:28;100794.88;;;1.17;83.07
83843;BME280;73869;52.336;21.182;2023-11-19T07:23:54;100792.03;;;1.19;83.20
83843;BME280;73869;52.336;21.182;2023-11-19T07:26:21;100798.09;;;1.21;82.82
83843;BME280;73869;52.336;21.182;2023-11-19T07:28:49;100799.75;;;1.22;82.67
83843;BME280;73869;52.336;21.182;2023-11-19T07:31:16;100791.88;;;1.20;83.49
83843;BME280;73869;52.336;21.182;2023-11-19T07:33:44;100791.72;;;1.22;82.98
83843;BME280;73869;52.336;21.182;2023-11-19T07:36:11;100783.72;;;1.22;83.22
83843;BME280;73869;52.336;21.182;2023-11-19T07:38:40;100783.72;;;1.22;83.42
83843;BME280;73869;52.336;21.182;2023-11-19T07:41:07;100783.00;;;1.20;83.63
83843;BME280;73869;52.336;21.182;2023-11-19T07:43:35;100778.50;;;1.20;83.60
83843;BME280;73869;52.336;21.182;2023-11-19T07:46:02;100775.69;;;1.22;83.44
83843;BME280;73869;52.336;21.182;2023-11-19T07:48:30;100775.69;;;1.22;83.52
83843;BME280;73869;52.336;21.182;2023-11-19T07:50:57;100776.69;;;1.21;83.75
83843;BME280;73869;52.336;21.182;2023-11-19T07:53:23;100770.34;;;1.22;83.76
83843;BME280;73869;52.336;21.182;2023-11-19T07:55:51;100775.00;;;1.20;83.92
83843;BME280;73869;52.336;21.182;2023-11-19T07:58:18;100768.13;;;1.17;83.74
83843;BME280;73869;52.336;21.182;2023-11-19T08:00:45;100763.91;;;1.15;83.83
83843;BME280;73869;52.336;21.182;2023-11-19T08:03:12;100761.38;;;1.13;83.75
83843;BME280;73869;52.336;21.182;2023-11-19T08:05:39;100756.03;;;1.13;84.01
83843;BME280;73869;52.336;21.182;2023-11-19T08:08:06;100752.81;;;1.10;83.95
83843;BME280;73869;52.336;21.182;2023-11-19T08:10:33;100742.09;;;1.10;84.14
83843;BME280;73869;52.336;21.182;2023-11-19T08:13:01;100736.91;;;1.08;84.12
83843;BME280;73869;52.336;21.182;2023-11-19T08:15:28;100735.78;;;1.11;84.23
83843;BME280;73869;52.336;21.182;2023-11-19T08:17:54;100730.28;;;1.12;83.79
83843;BME280;73869;52.336;21.182;2023-11-19T08:20:22;100730.81;;;1.16;84.11
83843;BME280;73869;52.336;21.182;2023-11-19T08:22:48;100726.13;;;1.18;84.30
83843;BME280;73869;52.336;21.182;2023-11-19T08:25:15;100723.19;;;1.21;83.94
83843;BME280;73869;52.336;21.182;2023-11-19T08:27:43;100722.88;;;1.24;84.20
83843;BME280;73869;52.336;21.182;2023-11-19T08:30:13;100726.09;;;1.27;84.66
83843;BME280;73869;52.336;21.182;2023-11-19T08:32:40;100724.94;;;1.30;84.13
83843;BME280;73869;52.336;21.182;2023-11-19T08:35:07;100725.47;;;1.33;84.38
83843;BME280;73869;52.336;21.182;2023-11-19T08:37:34;100721.63;;;1.36;84.26
83843;BME280;73869;52.336;21.182;2023-11-19T08:40:03;100718.69;;;1.39;84.38
83843;BME280;73869;52.336;21.182;2023-11-19T08:42:31;100717.53;;;1.42;84.23
83843;BME280;73869;52.336;21.182;2023-11-19T08:44:57;100719.03;;;1.44;83.89
83843;BME280;73869;52.336;21.182;2023-11-19T08:47:29;100712.72;;;1.45;84.20
83843;BME280;73869;52.336;21.182;2023-11-19T08:49:55;100708.88;;;1.48;84.35
83843;BME280;73869;52.336;21.182;2023-11-19T08:52:22;100714.75;;;1.51;83.76
83843;BME280;73869;52.336;21.182;2023-11-19T08:54:50;100709.56;;;1.50;84.47
83843;BME280;73869;52.336;21.182;2023-11-19T08:57:16;100700.25;;;1.54;84.14
83843;BME280;73869;52.336;21.182;2023-11-19T08:59:44;100700.25;;;1.54;84.38
83843;BME280;73869;52.336;21.182;2023-11-19T09:02:11;100702.59;;;1.57;84.18
83843;BME280;73869;52.336;21.182;2023-11-19T09:04:39;100702.28;;;1.60;84.25
83843;BME280;73869;52.336;21.182;2023-11-19T09:07:06;100690.28;;;1.64;83.73
83843;BME280;73869;52.336;21.182;2023-11-19T09:09:35;100684.47;;;1.68;83.45
83843;BME280;73869;52.336;21.182;2023-11-19T09:12:02;100675.44;;;1.69;83.90
83843;BME280;73869;52.336;21.182;2023-11-19T09:14:29;100675.97;;;1.73;83.90
83843;BME280;73869;52.336;21.182;2023-11-19T09:16:56;100680.31;;;1.74;83.92
83843;BME280;73869;52.336;21.182;2023-11-19T09:19:23;100672.81;;;1.77;83.83
83843;BME280;73869;52.336;21.182;2023-11-19T09:21:51;100661.78;;;1.80;83.73
83843;BME280;73869;52.336;21.182;2023-11-19T09:24:18;100669.38;;;1.85;83.30
83843;BME280;73869;52.336;21.182;2023-11-19T09:26:45;100660.47;;;1.84;83.93
83843;BME280;73869;52.336;21.182;2023-11-19T09:29:14;100662.16;;;1.85;83.87
83843;BME280;73869;52.336;21.182;2023-11-19T09:31:42;100663.84;;;1.86;83.85
83843;BME280;73869;52.336;21.182;2023-11-19T09:34:11;100655.66;;;1.88;83.85
83843;BME280;73869;52.336;21.182;2023-11-19T09:36:38;100653.81;;;1.88;83.88
83843;BME280;73869;52.336;21.182;2023-11-19T09:39:12;100643.44;;;1.93;83.51
83843;BME280;73869;52.336;21.182;2023-11-19T09:41:47;100638.63;;;1.97;84.15
83843;BME280;73869;52.336;21.182;2023-11-19T09:44:17;100628.75;;;1.97;84.15
83843;BME280;73869;52.336;21.182;2023-11-19T09:46:44;100631.97;;;2.01;84.07
83843;BME280;73869;52.336;21.182;2023-11-19T09:49:13;100625.09;;;2.06;83.65
83843;BME280;73869;52.336;21.182;2023-11-19T09:51:40;100624.97;;;2.08;83.94
83843;BME280;73869;52.336;21.182;2023-11-19T09:54:07;100609.56;;;2.10;83.82
83843;BME280;73869;52.336;21.182;2023-11-19T09:56:40;100608.41;;;2.12;83.37
83843;BME280;73869;52.336;21.182;2023-11-19T09:59:07;100600.22;;;2.14;83.85
83843;BME280;73869;52.336;21.182;2023-11-19T10:01:36;100608.25;;;2.14;84.05
83843;BME280;73869;52.336;21.182;2023-11-19T10:04:04;100601.72;;;2.16;83.91
83843;BME280;73869;52.336;21.182;2023-11-19T10:06:32;100600.75;;;2.17;83.39
83843;BME280;73869;52.336;21.182;2023-11-19T10:08:59;100595.22;;;2.19;83.58
83843;BME280;73869;52.336;21.182;2023-11-19T10:11:26;100593.53;;;2.18;83.54
83843;BME280;73869;52.336;21.182;2023-11-19T10:13:54;100582.81;;;2.18;83.82
83843;BME280;73869;52.336;21.182;2023-11-19T10:16:28;100578.97;;;2.20;83.35
83843;BME280;73869;52.336;21.182;2023-11-19T10:18:55;100585.19;;;2.21;83.88
83843;BME280;73869;52.336;21.182;2023-11-19T10:21:23;100569.75;;;2.23;83.41
83843;BME280;73869;52.336;21.182;2023-11-19T10:23:52;100569.13;;;2.21;83.17
83843;BME280;73869;52.336;21.182;2023-11-19T10:26:20;100568.78;;;2.24;83.02
83843;BME280;73869;52.336;21.182;2023-11-19T10:28:47;100566.09;;;2.24;83.38
83843;BME280;73869;52.336;21.182;2023-11-19T10:31:16;100558.06;;;2.24;83.47
83843;BME280;73869;52.336;21.182;2023-11-19T10:33:43;100551.69;;;2.25;83.11
83843;BME280;73869;52.336;21.182;2023-11-19T10:36:11;100548.69;;;2.28;83.24
83843;BME280;73869;52.336;21.182;2023-11-19T10:38:39;100546.16;;;2.26;83.09
83843;BME280;73869;52.336;21.182;2023-11-19T10:41:06;100541.66;;;2.27;83.64
83843;BME280;73869;52.336;21.182;2023-11-19T10:43:43;100535.28;;;2.28;83.04
83843;BME280;73869;52.336;21.182;2023-11-19T10:46:11;100520.91;;;2.29;83.37
83843;BME280;73869;52.336;21.182;2023-11-19T10:48:40;100511.16;;;2.28;83.43
83843;BME280;73869;52.336;21.182;2023-11-19T10:51:08;100513.19;;;2.26;82.98
83843;BME280;73869;52.336;21.182;2023-11-19T10:53:37;100516.53;;;2.28;83.35
83843;BME280;73869;52.336;21.182;2023-11-19T10:56:10;100512.03;;;2.28;83.06
83843;BME280;73869;52.336;21.182;2023-11-19T10:58:42;100513.50;;;2.31;83.39
83843;BME280;73869;52.336;21.182;2023-11-19T11:01:13;100499.47;;;2.29;83.49
83843;BME280;73869;52.336;21.182;2023-11-19T11:03:44;100496.78;;;2.29;83.17
83843;BME280;73869;52.336;21.182;2023-11-19T11:06:14;100491.44;;;2.29;83.08
83843;BME280;73869;52.336;21.182;2023-11-19T11:08:41;100477.19;;;2.28;83.41
83843;BME280;73869;52.336;21.182;2023-11-19T11:11:13;100473.66;;;2.28;82.92
83843;BME280;73869;52.336;21.182;2023-11-19T11:13:43;100468.97;;;2.30;83.42
83843;BME280;73869;52.336;21.182;2023-11-19T11:16:11;100456.75;;;2.27;83.32
83843;BME280;73869;52.336;21.182;2023-11-19T11:18:37;100462.13;;;2.27;83.36
83843;BME280;73869;52.336;21.182;2023-11-19T11:21:08;100450.56;;;2.27;83.45
83843;BME280;73869;52.336;21.182;2023-11-19T11:24:05;100444.88;;;2.30;82.97
83843;BME280;73869;52.336;21.182;2023-11-19T11:26:52;100429.63;;;2.30;83.20
83843;BME280;73869;52.336;21.182;2023-11-19T11:29:26;100421.59;;;2.30;83.47
83843;BME280;73869;52.336;21.182;2023-11-19T11:31:59;100428.78;;;2.30;83.04
83843;BME280;73869;52.336;21.182;2023-11-19T11:34:46;100429.81;;;2.29;83.29
83843;BME280;73869;52.336;21.182;2023-11-19T11:37:23;100431.28;;;2.23;83.10
83843;BME280;73869;52.336;21.182;2023-11-19T11:39:52;100419.91;;;2.21;83.25
83843;BME280;73869;52.336;21.182;2023-11-19T11:42:35;100415.38;;;2.22;83.54
83843;BME280;73869;52.336;21.182;2023-11-19T11:45:04;100412.72;;;2.22;83.31
83843;BME280;73869;52.336;21.182;2023-11-19T11:48:05;100414.53;;;2.21;82.80
83843;BME280;73869;52.336;21.182;2023-11-19T11:50:35;100409.34;;;2.20;83.28
83843;BME280;73869;52.336;21.182;2023-11-19T11:53:16;100397.94;;;2.18;83.08
83843;BME280;73869;52.336;21.182;2023-11-19T11:55:57;100393.94;;;2.22;83.05
83843;BME280;73869;52.336;21.182;2023-11-19T11:58:30;100392.13;;;2.22;82.96
83843;BME280;73869;52.336;21.182;2023-11-19T12:00:59;100382.22;;;2.23;82.81
83843;BME280;73869;52.336;21.182;2023-11-19T12:03:28;100377.03;;;2.21;83.02
83843;BME280;73869;52.336;21.182;2023-11-19T12:05:56;100378.56;;;2.16;83.00
83843;BME280;73869;52.336;21.182;2023-11-19T12:08:29;100368.16;;;2.13;83.04
83843;BME280;73869;52.336;21.182;2023-11-19T12:10:58;100358.63;;;2.10;82.84
83843;BME280;73869;52.336;21.182;2023-11-19T12:13:43;100355.25;;;2.08;82.94
83843;BME280;73869;52.336;21.182;2023-11-19T12:16:13;100349.72;;;2.10;82.91
83843;BME280;73869;52.336;21.182;2023-11-19T12:18:40;100347.06;;;2.10;83.06
83843;BME280;73869;52.336;21.182;2023-11-19T12:21:10;100345.41;;;2.09;83.22
83843;BME280;73869;52.336;21.182;2023-11-19T12:23:45;100333.50;;;2.11;82.98
83843;BME280;73869;52.336;21.182;2023-11-19T12:26:33;100330.97;;;2.10;83.12
83843;BME280;73869;52.336;21.182;2023-11-19T12:29:01;100326.97;;;2.06;82.79
83843;BME280;73869;52.336;21.182;2023-11-19T12:31:32;100321.78;;;2.04;82.98
83843;BME280;73869;52.336;21.182;2023-11-19T12:34:05;100322.94;;;2.02;83.20
83843;BME280;73869;52.336;21.182;2023-11-19T12:36:32;100316.78;;;2.01;82.72
83843;BME280;73869;52.336;21.182;2023-11-19T12:39:01;100314.91;;;2.02;83.06
83843;BME280;73869;52.336;21.182;2023-11-19T12:41:29;100306.88;;;2.02;82.92
83843;BME280;73869;52.336;21.182;2023-11-19T12:44:09;100296.34;;;2.00;83.50
83843;BME280;73869;52.336;21.182;2023-11-19T12:46:36;100302.53;;;2.01;83.29
83843;BME280;73869;52.336;21.182;2023-11-19T12:49:03;100304.38;;;2.00;83.38
83843;BME280;73869;52.336;21.182;2023-11-19T12:51:31;100302.72;;;1.99;83.61
83843;BME280;73869;52.336;21.182;2023-11-19T12:53:58;100295.84;;;1.97;83.41
83843;BME280;73869;52.336;21.182;2023-11-19T12:56:26;100300.84;;;2.00;83.18